Time;durP1;ratioP1;P1;durP2;ratioP2;P2;SDS_P1;SDS_P2;PMS_P1;PMS_P2;Temp;Humidity;BMP_temperature;BMP_pressure;BME280_temperature;BME280_humidity;BME280_pressure;Samples;Min_cycle;Max_cycle;Signal;HPM_P1;HPM_P2
2022/07/05 00:01:51;;;;;;;1.98;0.98;;;19.80;99.90;;;;;;5010689;28;20029;-77
2022/07/05 00:04:16;;;;;;;4.15;1.60;;;19.60;99.90;;;;;;4991244;28;20112;-77
2022/07/05 00:07:17;;;;;;;3.25;1.50;;;19.60;99.90;;;;;;5010416;28;20060;-77
2022/07/05 00:09:28;;;;;;;4.20;1.50;;;19.70;99.90;;;;;;5009593;28;20081;-77
2022/07/05 00:11:54;;;;;;;5.22;1.67;;;19.60;99.90;;;;;;5011587;28;20511;-77
2022/07/05 00:14:19;;;;;;;6.95;1.50;;;19.80;99.90;;;;;;5008648;28;20431;-77
2022/07/05 00:16:45;;;;;;;2.15;1.20;;;19.90;99.90;;;;;;5010721;28;20038;-77
2022/07/05 00:19:11;;;;;;;4.28;1.30;;;20.00;99.90;;;;;;5010041;28;20495;-77
2022/07/05 00:21:36;;;;;;;3.97;1.38;;;20.00;99.90;;;;;;5008879;28;20033;-77
2022/07/05 00:24:02;;;;;;;2.63;1.30;;;19.90;99.90;;;;;;5008353;28;20041;-77
2022/07/05 00:26:28;;;;;;;4.60;1.73;;;19.60;99.90;;;;;;5010732;28;20041;-77
2022/07/05 00:28:54;;;;;;;3.60;1.55;;;19.80;99.90;;;;;;5010123;28;20049;-77
2022/07/05 00:31:19;;;;;;;3.85;1.30;;;20.00;99.90;;;;;;5008789;28;20554;-77
2022/07/05 00:33:45;;;;;;;9.13;1.92;;;19.80;99.90;;;;;;4991584;28;20494;-77
2022/07/05 00:36:11;;;;;;;3.33;1.52;;;19.80;99.90;;;;;;5010252;28;20042;-77
2022/07/05 00:38:37;;;;;;;2.38;1.40;;;19.80;99.90;;;;;;5007358;28;20556;-77
2022/07/05 00:41:02;;;;;;;3.25;1.70;;;19.60;99.90;;;;;;5009932;28;20037;-77
2022/07/05 00:43:28;;;;;;;2.75;1.27;;;19.70;99.90;;;;;;5003532;28;20113;-77
2022/07/05 00:45:54;;;;;;;3.80;1.20;;;19.70;99.90;;;;;;5008122;28;20033;-77
2022/07/05 00:48:19;;;;;;;3.58;1.55;;;19.50;99.90;;;;;;5006572;28;20137;-77
2022/07/05 00:50:45;;;;;;;2.47;1.40;;;19.50;99.90;;;;;;5006315;28;20030;-77
2022/07/05 00:53:11;;;;;;;5.55;1.65;;;19.40;99.90;;;;;;5005684;28;20033;-77
2022/07/05 00:55:37;;;;;;;2.45;1.30;;;19.40;99.90;;;;;;5010023;28;20053;-77
2022/07/05 00:58:03;;;;;;;4.30;1.40;;;19.40;99.90;;;;;;5007574;28;20084;-77
2022/07/05 01:00:28;;;;;;;3.08;1.20;;;19.10;99.90;;;;;;5002835;28;20030;-77
2022/07/05 01:02:54;;;;;;;3.30;1.48;;;19.20;99.90;;;;;;5004989;28;20048;-77
2022/07/05 01:05:21;;;;;;;3.63;1.42;;;19.20;99.90;;;;;;5005201;28;20095;-77
2022/07/05 01:07:47;;;;;;;5.88;1.27;;;19.40;99.90;;;;;;5008162;28;20056;-77
2022/07/05 01:10:12;;;;;;;4.45;1.35;;;19.30;99.90;;;;;;5006574;28;20407;-77
2022/07/05 01:12:39;;;;;;;2.67;1.20;;;19.10;99.90;;;;;;5005451;28;20117;-77
2022/07/05 01:15:05;;;;;;;2.70;1.35;;;19.10;99.90;;;;;;5004470;28;20726;-78
2022/07/05 01:17:32;;;;;;;5.05;1.50;;;19.20;99.90;;;;;;5006137;28;20022;-77
2022/07/05 01:19:58;;;;;;;3.53;1.55;;;19.10;99.90;;;;;;5006072;28;20554;-77
2022/07/05 01:22:26;;;;;;;3.63;1.40;;;19.10;99.90;;;;;;5005376;28;20053;-78
2022/07/05 01:24:52;;;;;;;6.13;1.70;;;19.00;99.90;;;;;;5006010;28;20041;-77
2022/07/05 01:27:19;;;;;;;4.72;2.20;;;19.10;99.90;;;;;;5008252;28;20355;-77
2022/07/05 01:29:45;;;;;;;5.60;1.63;;;19.00;99.90;;;;;;5006192;28;20583;-77
2022/07/05 01:32:11;;;;;;;4.25;1.30;;;19.10;99.90;;;;;;5008726;28;20068;-77
2022/07/05 01:34:38;;;;;;;2.47;1.27;;;19.10;99.90;;;;;;5007406;28;20030;-77
2022/07/05 01:37:05;;;;;;;4.32;1.70;;;19.00;99.90;;;;;;5009450;28;20041;-77
2022/07/05 01:39:32;;;;;;;3.90;1.35;;;19.10;99.90;;;;;;5006148;28;20468;-77
2022/07/05 01:41:57;;;;;;;4.45;1.33;;;19.50;99.90;;;;;;5007636;28;20045;-77
2022/07/05 01:44:23;;;;;;;3.58;1.60;;;19.60;99.90;;;;;;5006116;28;20515;-77
2022/07/05 01:46:57;;;;;;;3.20;1.00;;;19.70;99.90;;;;;;5005685;28;20026;-77
2022/07/05 01:49:25;;;;;;;3.88;1.42;;;19.70;99.90;;;;;;5008434;28;20054;-77
2022/07/05 01:51:57;;;;;;;3.33;1.60;;;19.50;99.90;;;;;;5007158;28;20061;-77
2022/07/05 01:54:23;;;;;;;3.83;1.67;;;19.50;99.90;;;;;;5007098;28;20108;-77
2022/07/05 01:56:48;;;;;;;2.70;1.23;;;19.50;99.90;;;;;;5006746;28;20584;-77
2022/07/05 01:59:14;;;;;;;3.75;1.40;;;19.50;99.90;;;;;;5007786;28;20057;-77
2022/07/05 02:01:40;;;;;;;2.72;1.10;;;19.60;99.90;;;;;;5008244;28;20450;-78
2022/07/05 02:04:08;;;;;;;2.67;1.13;;;19.60;99.90;;;;;;5006160;28;20026;-77
2022/07/05 02:06:34;;;;;;;2.72;1.17;;;19.50;99.90;;;;;;5008128;28;20022;-77
2022/07/05 02:09:01;;;;;;;2.50;1.02;;;19.60;99.90;;;;;;5006914;28;20037;-77
2022/07/05 02:11:27;;;;;;;2.20;1.20;;;19.50;99.90;;;;;;5007511;28;20558;-77
2022/07/05 02:13:53;;;;;;;1.80;1.23;;;19.50;99.90;;;;;;5005461;28;20029;-77
2022/07/05 02:16:22;;;;;;;2.55;1.20;;;19.30;99.90;;;;;;5006963;28;20041;-78
2022/07/05 02:18:48;;;;;;;4.22;1.02;;;19.30;99.90;;;;;;5007431;28;20061;-77
2022/07/05 02:21:14;;;;;;;3.28;1.38;;;19.10;99.90;;;;;;5007843;28;20080;-77
2022/07/05 02:23:39;;;;;;;5.53;1.30;;;19.00;99.90;;;;;;5006154;28;20466;-77
2022/07/05 02:26:05;;;;;;;5.32;1.50;;;18.80;99.90;;;;;;5005623;28;20435;-77
2022/07/05 02:28:31;;;;;;;3.80;1.30;;;18.80;99.90;;;;;;5006774;28;20391;-77
2022/07/05 02:30:56;;;;;;;5.07;1.63;;;18.70;99.90;;;;;;5002435;28;20029;-78
2022/07/05 02:33:22;;;;;;;3.58;1.38;;;19.00;99.90;;;;;;5005933;28;20030;-78
2022/07/05 02:35:48;;;;;;;5.60;1.40;;;19.20;99.90;;;;;;5006768;28;20042;-78
2022/07/05 02:38:13;;;;;;;4.13;1.80;;;19.20;99.90;;;;;;5007869;28;20125;-78
2022/07/05 02:40:39;;;;;;;3.38;1.90;;;19.20;99.90;;;;;;5010327;28;20129;-78
2022/07/05 02:43:06;;;;;;;4.03;1.60;;;19.20;99.90;;;;;;5009728;28;20492;-78
2022/07/05 02:45:31;;;;;;;2.70;1.38;;;19.20;99.90;;;;;;5007182;28;20040;-78
2022/07/05 02:47:57;;;;;;;2.97;1.40;;;19.20;99.90;;;;;;5010457;28;20048;-78
2022/07/05 02:50:23;;;;;;;3.42;1.08;;;19.10;99.90;;;;;;5007697;28;20041;-78
2022/07/05 02:52:49;;;;;;;3.92;1.42;;;18.90;99.90;;;;;;5006199;28;20033;-78
2022/07/05 02:55:14;;;;;;;4.43;1.40;;;19.00;99.90;;;;;;5009867;28;20495;-78
2022/07/05 02:57:40;;;;;;;3.50;1.60;;;19.00;99.90;;;;;;5009907;28;20026;-78
2022/07/05 03:00:07;;;;;;;2.40;1.40;;;19.10;99.90;;;;;;5007521;28;21517;-78
2022/07/05 03:02:32;;;;;;;4.82;1.88;;;19.10;99.90;;;;;;5010054;28;20030;-77
2022/07/05 03:04:58;;;;;;;5.25;1.50;;;19.00;99.90;;;;;;5007579;28;20099;-77
2022/07/05 03:07:24;;;;;;;2.97;1.33;;;19.10;99.90;;;;;;5009322;28;20053;-77
2022/07/05 03:09:49;;;;;;;3.78;1.38;;;19.00;99.90;;;;;;5008594;28;20134;-77
2022/07/05 03:12:15;;;;;;;4.47;1.42;;;18.70;99.90;;;;;;5006803;28;20069;-77
2022/07/05 03:14:40;;;;;;;3.40;1.70;;;18.70;99.90;;;;;;5004887;28;20026;-76
2022/07/05 03:17:07;;;;;;;2.78;1.30;;;18.70;99.90;;;;;;5002726;28;20041;-77
2022/07/05 03:19:32;;;;;;;3.95;1.73;;;18.50;99.90;;;;;;5004304;28;20034;-77
2022/07/05 03:21:58;;;;;;;3.33;1.50;;;18.60;99.90;;;;;;5001957;28;20546;-77
2022/07/05 03:24:24;;;;;;;7.30;1.33;;;18.50;99.90;;;;;;5004897;28;20080;-77
2022/07/05 03:26:49;;;;;;;3.70;1.42;;;18.50;99.90;;;;;;5005433;28;20642;-77
2022/07/05 03:29:15;;;;;;;5.68;2.10;;;18.50;99.90;;;;;;5003429;28;20123;-77
2022/07/05 03:31:41;;;;;;;3.50;1.80;;;18.60;99.90;;;;;;5003497;28;20088;-76
2022/07/05 03:34:07;;;;;;;3.58;1.65;;;18.80;99.90;;;;;;5003156;28;20037;-77
2022/07/05 03:36:32;;;;;;;3.42;1.25;;;18.90;99.90;;;;;;5006941;28;20022;-77
2022/07/05 03:38:58;;;;;;;5.18;1.48;;;18.90;99.90;;;;;;5005519;28;20565;-76
2022/07/05 03:41:24;;;;;;;3.50;1.75;;;18.90;99.90;;;;;;5006596;28;20076;-76
2022/07/05 03:43:49;;;;;;;4.68;2.05;;;19.00;99.90;;;;;;5005660;28;20036;-76
2022/07/05 03:46:15;;;;;;;3.00;1.50;;;19.10;99.90;;;;;;5004251;28;20100;-76
2022/07/05 03:48:41;;;;;;;4.15;1.55;;;19.00;99.90;;;;;;5003099;28;20037;-77
2022/07/05 03:51:06;;;;;;;8.85;1.30;;;19.10;99.90;;;;;;5002897;28;20057;-76
2022/07/05 03:53:32;;;;;;;3.88;1.42;;;19.10;99.90;;;;;;5005762;28;20037;-77
2022/07/05 03:55:57;;;;;;;3.08;1.40;;;19.10;99.90;;;;;;5005033;28;20040;-77
2022/07/05 03:58:23;;;;;;;10.13;3.05;;;19.20;99.90;;;;;;5003616;28;20554;-77
2022/07/05 04:00:49;;;;;;;3.63;1.30;;;19.10;99.90;;;;;;5002196;28;20594;-77
2022/07/05 04:03:14;;;;;;;2.65;1.30;;;19.10;99.90;;;;;;5000945;28;20033;-77
2022/07/05 04:05:41;;;;;;;5.35;1.48;;;19.30;99.90;;;;;;5003826;28;20038;-77
2022/07/05 04:08:07;;;;;;;2.38;1.13;;;19.20;99.90;;;;;;5001964;28;20395;-77
2022/07/05 04:10:32;;;;;;;3.78;1.40;;;19.10;99.90;;;;;;5002264;28;20049;-77
2022/07/05 04:12:58;;;;;;;2.75;1.48;;;19.20;99.90;;;;;;5003773;28;20041;-77
2022/07/05 04:15:24;;;;;;;2.80;1.40;;;19.20;99.90;;;;;;5001974;28;20065;-76
2022/07/05 04:17:53;;;;;;;4.75;1.42;;;19.20;99.90;;;;;;5001446;28;20116;-77
2022/07/05 04:20:21;;;;;;;8.15;1.15;;;19.40;99.90;;;;;;5002355;28;20030;-77
2022/07/05 04:22:46;;;;;;;3.20;1.38;;;19.20;99.90;;;;;;5002720;28;20046;-77
2022/07/05 04:25:18;;;;;;;4.53;1.38;;;19.20;99.90;;;;;;5000475;28;20719;-76
2022/07/05 04:27:51;;;;;;;2.88;1.35;;;19.20;99.90;;;;;;4998331;28;20038;-77
2022/07/05 04:30:19;;;;;;;2.08;1.13;;;19.30;99.90;;;;;;5000169;28;20050;-77
2022/07/05 04:32:45;;;;;;;3.92;1.35;;;19.40;99.90;;;;;;5003804;28;20669;-77
2022/07/05 04:35:11;;;;;;;5.10;1.25;;;19.40;99.90;;;;;;5001925;28;20030;-76
2022/07/05 04:37:37;;;;;;;3.85;1.42;;;19.40;99.90;;;;;;4984713;28;20042;-77
2022/07/05 04:40:05;;;;;;;4.38;1.38;;;19.20;99.90;;;;;;5004991;28;20034;-77
2022/07/05 04:42:31;;;;;;;4.07;1.40;;;19.40;99.90;;;;;;5006534;28;20971;-77
2022/07/05 04:44:57;;;;;;;3.80;1.20;;;19.50;99.90;;;;;;5005080;28;20034;-77
2022/07/05 04:47:22;;;;;;;3.10;1.40;;;19.60;99.90;;;;;;5006354;28;20049;-76
2022/07/05 04:49:48;;;;;;;5.95;1.55;;;19.50;99.90;;;;;;5004793;28;20049;-77
2022/07/05 04:52:14;;;;;;;3.15;1.20;;;19.50;99.90;;;;;;5003173;28;20492;-77
2022/07/05 04:54:39;;;;;;;3.10;1.30;;;19.50;99.90;;;;;;5005673;28;20034;-77
2022/07/05 04:57:05;;;;;;;3.35;1.13;;;19.40;99.90;;;;;;5002575;28;20037;-77
2022/07/05 04:59:31;;;;;;;7.63;1.55;;;19.50;99.90;;;;;;5006511;28;20030;-77
2022/07/05 05:01:57;;;;;;;3.58;1.10;;;19.50;99.90;;;;;;5006195;28;20033;-77
2022/07/05 05:04:22;;;;;;;3.13;1.40;;;19.60;99.90;;;;;;5004761;28;20045;-77
2022/07/05 05:06:48;;;;;;;3.30;1.88;;;19.70;99.90;;;;;;5005202;28;20030;-76
2022/07/05 05:09:14;;;;;;;3.05;1.20;;;19.80;99.90;;;;;;5006985;28;20038;-76
2022/07/05 05:11:39;;;;;;;2.40;1.00;;;19.90;99.90;;;;;;5005952;28;20033;-76
2022/07/05 05:14:05;;;;;;;4.47;1.65;;;19.80;99.90;;;;;;5003490;28;20029;-76
2022/07/05 05:16:31;;;;;;;1.70;0.90;;;19.90;99.90;;;;;;5004912;28;20017;-77
2022/07/05 05:18:56;;;;;;;2.10;1.20;;;20.00;99.90;;;;;;5005610;28;20515;-78
2022/07/05 05:21:22;;;;;;;2.80;1.20;;;20.10;99.90;;;;;;5007835;28;20085;-78
2022/07/05 05:23:48;;;;;;;3.88;1.23;;;20.00;99.90;;;;;;5010253;28;20129;-77
2022/07/05 05:26:14;;;;;;;2.65;1.27;;;20.00;99.90;;;;;;5010304;28;20057;-75
2022/07/05 05:28:39;;;;;;;2.30;0.93;;;19.90;99.90;;;;;;5002311;28;20037;-76
2022/07/05 05:31:06;;;;;;;3.90;1.40;;;19.90;99.90;;;;;;5005761;28;20994;-76
2022/07/05 05:33:31;;;;;;;6.30;1.58;;;19.90;99.90;;;;;;5002957;28;20033;-77
2022/07/05 05:35:57;;;;;;;8.02;1.40;;;20.00;99.90;;;;;;5006014;28;20399;-76
2022/07/05 05:38:23;;;;;;;2.08;1.08;;;19.90;99.90;;;;;;5006570;28;20432;-76
2022/07/05 05:40:48;;;;;;;7.15;1.25;;;20.00;99.90;;;;;;5006441;28;20040;-76
2022/07/05 05:43:14;;;;;;;4.28;1.10;;;20.00;99.90;;;;;;5004983;28;20460;-76
2022/07/05 05:45:39;;;;;;;2.22;1.17;;;20.00;99.90;;;;;;5006507;28;20457;-76
2022/07/05 05:48:05;;;;;;;4.20;1.48;;;20.00;99.90;;;;;;5006965;28;20500;-76
2022/07/05 05:50:33;;;;;;;2.60;1.20;;;20.00;99.90;;;;;;5005120;28;20030;-76
2022/07/05 05:53:00;;;;;;;3.20;1.63;;;20.10;99.90;;;;;;5004967;28;20041;-76
2022/07/05 05:55:27;;;;;;;5.22;1.48;;;20.20;99.90;;;;;;5005935;28;20034;-76
2022/07/05 05:57:53;;;;;;;3.00;1.10;;;20.10;99.90;;;;;;5005999;28;20471;-76
2022/07/05 06:00:21;;;;;;;6.22;1.50;;;20.10;99.90;;;;;;5006117;28;20025;-76
2022/07/05 06:02:49;;;;;;;6.57;2.08;;;20.00;99.90;;;;;;5003742;28;20030;-76
2022/07/05 06:05:15;;;;;;;4.30;1.20;;;20.00;99.90;;;;;;5005862;28;20413;-77
2022/07/05 06:07:54;;;;;;;4.15;1.45;;;20.00;99.90;;;;;;5005404;28;20034;-77
2022/07/05 06:10:24;;;;;;;4.00;2.00;;;20.00;99.90;;;;;;5005798;28;20038;-79
2022/07/05 06:12:51;;;;;;;3.75;1.38;;;20.00;99.90;;;;;;5005062;28;20026;-77
2022/07/05 06:15:18;;;;;;;3.45;1.25;;;20.10;99.90;;;;;;5005585;28;20018;-76
2022/07/05 06:17:43;;;;;;;3.33;1.15;;;20.10;99.90;;;;;;4988286;28;20377;-74
2022/07/05 06:20:14;;;;;;;6.80;1.77;;;20.00;99.90;;;;;;5004987;28;20096;-75
2022/07/05 06:22:41;;;;;;;4.88;1.55;;;20.10;99.90;;;;;;5003554;28;20046;-75
2022/07/05 06:25:07;;;;;;;4.93;1.30;;;20.20;99.90;;;;;;5005496;28;20033;-75
2022/07/05 06:27:41;;;;;;;2.35;1.20;;;20.40;99.90;;;;;;5004501;28;20415;-75
2022/07/05 06:30:08;;;;;;;4.25;1.33;;;20.70;99.90;;;;;;5003989;28;20038;-75
2022/07/05 06:32:34;;;;;;;2.92;1.23;;;21.00;99.90;;;;;;5005938;28;20109;-74
2022/07/05 06:34:59;;;;;;;3.03;1.38;;;21.30;99.90;;;;;;5006747;28;20109;-73
2022/07/05 06:37:25;;;;;;;4.22;1.30;;;21.30;99.90;;;;;;5005818;28;20381;-74
2022/07/05 06:39:51;;;;;;;2.80;1.20;;;21.30;99.90;;;;;;5006062;28;20053;-74
2022/07/05 06:42:16;;;;;;;3.15;1.50;;;21.40;99.90;;;;;;5004274;28;20083;-74
2022/07/05 06:44:43;;;;;;;4.13;1.20;;;21.40;99.90;;;;;;5005390;28;20121;-74
2022/07/05 06:47:09;;;;;;;2.33;1.20;;;21.50;99.90;;;;;;5005527;28;20026;-74
2022/07/05 06:49:35;;;;;;;2.63;1.23;;;21.50;99.90;;;;;;5003212;28;20034;-74
2022/07/05 06:52:01;;;;;;;3.78;1.60;;;21.50;99.90;;;;;;4994159;28;20042;-75
2022/07/05 06:54:27;;;;;;;4.95;1.90;;;21.40;99.90;;;;;;4999917;28;20049;-74
2022/07/05 06:56:55;;;;;;;6.20;1.38;;;21.30;99.90;;;;;;4999531;28;20974;-75
2022/07/05 06:59:22;;;;;;;5.07;1.60;;;21.20;99.90;;;;;;4995529;28;20260;-74
2022/07/05 07:01:47;;;;;;;4.90;1.55;;;21.40;99.90;;;;;;5004121;28;20079;-74
2022/07/05 07:04:13;;;;;;;2.90;1.50;;;21.30;99.90;;;;;;5002175;28;20026;-73
2022/07/05 07:06:39;;;;;;;4.82;1.40;;;21.50;99.90;;;;;;5004783;28;20068;-74
2022/07/05 07:09:21;;;;;;;9.15;2.13;;;21.70;99.90;;;;;;5003778;28;20088;-74
2022/07/05 07:11:48;;;;;;;2.47;1.27;;;22.30;99.90;;;;;;5004125;28;20049;-75
2022/07/05 07:14:14;;;;;;;3.40;1.30;;;22.70;99.90;;;;;;5004922;28;20391;-73
2022/07/05 07:16:40;;;;;;;5.10;1.50;;;22.20;99.40;;;;;;5004221;28;20030;-73
2022/07/05 07:19:06;;;;;;;2.17;1.20;;;22.60;99.50;;;;;;4999566;28;20036;-73
2022/07/05 07:21:32;;;;;;;2.05;1.00;;;22.90;98.90;;;;;;5002558;28;20029;-72
2022/07/05 07:23:57;;;;;;;6.18;1.20;;;22.70;98.30;;;;;;5004545;28;20046;-71
2022/07/05 07:26:23;;;;;;;3.70;0.95;;;22.90;97.80;;;;;;5004506;28;20036;-69
2022/07/05 07:28:49;;;;;;;2.05;1.10;;;23.30;97.80;;;;;;5002686;28;20543;-70
2022/07/05 07:31:14;;;;;;;4.85;1.33;;;23.70;97.10;;;;;;5002579;28;20045;-72
2022/07/05 07:33:41;;;;;;;2.88;1.15;;;24.20;96.40;;;;;;5004196;28;20040;-73
2022/07/05 07:36:07;;;;;;;4.32;1.40;;;24.50;96.20;;;;;;5004132;28;20026;-71
2022/07/05 07:38:33;;;;;;;5.43;1.35;;;25.70;95.90;;;;;;5001737;28;20092;-72
2022/07/05 07:41:00;;;;;;;2.75;1.17;;;26.60;94.60;;;;;;5003796;28;20117;-71
2022/07/05 07:43:26;;;;;;;2.95;1.45;;;27.70;92.80;;;;;;5003762;28;20040;-70
2022/07/05 07:45:51;;;;;;;2.05;1.15;;;28.20;92.20;;;;;;5004086;28;20062;-71
2022/07/05 07:48:18;;;;;;;6.57;0.93;;;26.80;93.90;;;;;;5001024;28;20085;-71
2022/07/05 07:50:44;;;;;;;2.33;1.55;;;26.30;93.90;;;;;;5007567;28;20080;-70
2022/07/05 07:53:10;;;;;;;2.38;1.17;;;25.60;94.50;;;;;;5004276;28;20029;-70
2022/07/05 07:55:35;;;;;;;5.10;1.10;;;25.20;95.10;;;;;;5003247;28;20420;-72
2022/07/05 07:58:01;;;;;;;6.72;1.85;;;24.50;95.90;;;;;;5004734;28;20065;-70
2022/07/05 08:00:28;;;;;;;3.28;1.15;;;24.30;96.20;;;;;;5000890;28;20022;-69
2022/07/05 08:02:53;;;;;;;6.78;1.40;;;24.50;96.40;;;;;;4998966;28;20041;-71
2022/07/05 08:05:19;;;;;;;3.42;1.63;;;24.40;96.40;;;;;;5002326;28;20034;-72
2022/07/05 08:07:44;;;;;;;3.08;1.10;;;24.60;96.10;;;;;;5003526;28;20048;-70
2022/07/05 08:10:10;;;;;;;2.40;0.95;;;24.90;96.30;;;;;;5004464;28;20109;-71
2022/07/05 08:12:36;;;;;;;3.45;1.40;;;24.70;95.50;;;;;;5004129;28;20128;-70
2022/07/05 08:15:02;;;;;;;2.17;1.10;;;25.30;94.90;;;;;;5006163;28;20030;-72
2022/07/05 08:17:27;;;;;;;3.30;1.42;;;26.00;93.90;;;;;;5007714;28;20041;-71
2022/07/05 08:22:37;;;;;;;3.22;1.35;;;26.10;94.10;;;;;;5004921;28;20084;-69
2022/07/05 08:25:03;;;;;;;1.88;0.95;;;26.20;93.30;;;;;;5008104;28;20034;-71
2022/07/05 08:27:29;;;;;;;2.10;1.00;;;25.90;93.70;;;;;;5007860;28;20030;-69
2022/07/05 08:29:54;;;;;;;3.03;1.10;;;25.90;93.80;;;;;;5006138;28;20041;-71
2022/07/05 08:32:21;;;;;;;2.78;1.25;;;25.90;94.00;;;;;;5005950;28;20117;-70
2022/07/05 08:34:47;;;;;;;3.55;1.00;;;26.30;93.40;;;;;;5007723;28;20030;-69
2022/07/05 08:37:12;;;;;;;5.82;1.30;;;26.20;92.30;;;;;;5006978;28;20041;-69
2022/07/05 08:39:38;;;;;;;3.60;1.30;;;26.10;92.80;;;;;;5006506;28;20033;-69
2022/07/05 08:42:09;;;;;;;4.25;1.52;;;26.40;92.70;;;;;;5007825;28;20041;-69
2022/07/05 08:44:38;;;;;;;4.25;1.38;;;26.10;93.00;;;;;;5008078;28;20029;-70
2022/07/05 08:47:09;;;;;;;3.45;1.45;;;26.30;93.20;;;;;;5007989;28;20029;-71
2022/07/05 08:49:37;;;;;;;5.10;1.30;;;26.50;93.60;;;;;;5005605;28;20041;-71
2022/07/05 08:52:06;;;;;;;2.50;1.10;;;26.60;93.70;;;;;;5007228;28;20045;-69
2022/07/05 08:54:32;;;;;;;2.40;1.02;;;26.80;93.50;;;;;;5008074;28;20125;-69
2022/07/05 08:56:57;;;;;;;5.38;1.33;;;26.80;93.30;;;;;;5006837;28;20575;-69
2022/07/05 08:59:23;;;;;;;2.33;1.13;;;26.80;93.80;;;;;;5006734;28;20037;-72
2022/07/05 09:01:49;;;;;;;2.58;1.35;;;26.60;92.90;;;;;;5007622;28;20480;-72
2022/07/05 09:04:17;;;;;;;2.38;1.25;;;26.70;93.30;;;;;;5007617;28;20499;-70
2022/07/05 09:06:46;;;;;;;2.22;1.40;;;27.00;91.90;;;;;;5007698;28;20030;-70
2022/07/05 09:09:12;;;;;;;5.90;1.20;;;27.10;92.20;;;;;;5006381;28;20034;-70
2022/07/05 09:11:44;;;;;;;4.88;1.40;;;26.80;93.00;;;;;;5007335;28;20034;-70
2022/07/05 09:14:24;;;;;;;3.50;1.60;;;26.70;92.50;;;;;;5006510;28;20026;-70
2022/07/05 09:16:50;;;;;;;2.38;1.20;;;27.00;92.90;;;;;;5006932;28;20021;-71
2022/07/05 09:19:16;;;;;;;2.08;1.13;;;26.80;92.40;;;;;;5007247;28;20057;-70
2022/07/05 09:21:42;;;;;;;2.88;1.48;;;27.10;92.20;;;;;;5007303;28;20069;-70
2022/07/05 09:24:10;;;;;;;5.65;1.60;;;27.30;93.20;;;;;;5005538;28;20062;-70
2022/07/05 09:26:50;;;;;;;3.25;1.35;;;27.30;92.80;;;;;;5006441;28;20563;-71
2022/07/05 09:29:18;;;;;;;3.38;1.60;;;27.60;92.30;;;;;;5006091;28;20046;-70
2022/07/05 09:31:46;;;;;;;4.00;1.25;;;27.60;92.70;;;;;;5005107;28;20030;-70
2022/07/05 09:34:17;;;;;;;3.75;1.38;;;27.70;92.70;;;;;;5007065;28;20037;-70
2022/07/05 09:36:55;;;;;;;2.45;1.35;;;27.50;91.10;;;;;;5004393;28;20030;-70
2022/07/05 09:39:33;;;;;;;3.00;1.35;;;27.40;92.40;;;;;;5006045;28;20129;-70
2022/07/05 09:42:25;;;;;;;2.70;1.30;;;27.80;92.40;;;;;;5006791;28;20037;-70
2022/07/05 09:44:57;;;;;;;2.70;1.13;;;28.10;91.20;;;;;;4999085;28;20104;-70
2022/07/05 09:47:29;;;;;;;2.28;0.90;;;28.10;90.90;;;;;;5005343;28;20395;-70
2022/07/05 09:49:56;;;;;;;2.00;1.20;;;28.30;92.30;;;;;;4998862;28;20137;-70
2022/07/05 09:52:30;;;;;;;3.40;1.23;;;28.30;92.20;;;;;;5006564;28;20034;-70
2022/07/05 09:55:06;;;;;;;3.40;1.60;;;28.20;91.70;;;;;;5006720;28;20049;-71
2022/07/05 09:57:33;;;;;;;5.47;1.80;;;28.40;91.80;;;;;;5005477;28;20030;-71
2022/07/05 10:00:08;;;;;;;6.35;1.60;;;28.90;91.10;;;;;;5009210;28;20037;-71
2022/07/05 10:02:41;;;;;;;2.30;0.95;;;29.00;90.50;;;;;;5009353;28;20033;-70
2022/07/05 10:05:13;;;;;;;3.63;1.10;;;28.50;90.90;;;;;;5009240;28;20030;-71
2022/07/05 10:07:45;;;;;;;2.15;1.05;;;28.50;91.40;;;;;;5008425;28;20037;-71
2022/07/05 10:10:13;;;;;;;2.28;0.95;;;28.40;91.30;;;;;;5003723;28;20037;-71
2022/07/05 10:12:39;;;;;;;2.90;1.35;;;29.00;90.00;;;;;;5008927;28;20045;-70
2022/07/05 10:15:09;;;;;;;4.20;1.10;;;29.50;89.70;;;;;;5009282;28;20601;-71
2022/07/05 10:17:39;;;;;;;3.50;1.10;;;29.70;89.00;;;;;;5009231;28;20399;-70
2022/07/05 10:20:11;;;;;;;2.85;1.40;;;29.60;90.10;;;;;;5005386;28;20030;-70
2022/07/05 10:22:36;;;;;;;2.53;1.15;;;29.40;90.30;;;;;;5008692;28;20049;-70
2022/07/05 10:25:03;;;;;;;2.33;1.02;;;29.50;90.30;;;;;;5009394;28;20488;-71
2022/07/05 10:27:30;;;;;;;3.00;1.00;;;29.60;90.50;;;;;;5008055;28;20588;-70
2022/07/05 10:29:57;;;;;;;4.63;1.38;;;29.40;87.70;;;;;;5007685;28;20611;-71
2022/07/05 10:32:24;;;;;;;2.85;1.55;;;29.40;90.60;;;;;;5009099;28;20034;-70
2022/07/05 10:34:51;;;;;;;3.72;1.20;;;29.80;89.40;;;;;;5008152;28;20559;-71
2022/07/05 10:37:18;;;;;;;4.50;1.33;;;29.50;88.00;;;;;;5008120;28;20030;-71
2022/07/05 10:39:44;;;;;;;3.67;1.30;;;29.60;89.30;;;;;;5008680;28;20522;-71
2022/07/05 10:42:10;;;;;;;3.30;1.20;;;30.30;89.80;;;;;;5008264;28;20142;-71
2022/07/05 10:44:37;;;;;;;2.50;1.25;;;30.40;88.70;;;;;;5008643;28;20380;-71
2022/07/05 10:47:10;;;;;;;5.28;1.40;;;30.50;89.20;;;;;;5004779;28;20053;-71
2022/07/05 10:49:37;;;;;;;6.13;1.40;;;30.30;89.70;;;;;;5008504;28;20069;-70
2022/07/05 10:52:03;;;;;;;5.50;1.30;;;29.60;90.30;;;;;;5008102;28;20492;-71
2022/07/05 10:54:29;;;;;;;5.45;1.83;;;28.90;90.50;;;;;;5007765;28;20042;-71
2022/07/05 10:57:24;;;;;;;4.80;1.27;;;29.50;90.80;;;;;;5003373;28;20064;-71
2022/07/05 11:00:10;;;;;;;2.67;1.17;;;29.80;90.40;;;;;;4997513;28;20022;-72
2022/07/05 11:02:37;;;;;;;2.00;1.00;;;29.60;90.50;;;;;;5007521;28;20038;-71
2022/07/05 11:05:03;;;;;;;2.65;1.20;;;30.10;90.50;;;;;;5008020;28;20038;-71
2022/07/05 11:08:01;;;;;;;5.53;1.35;;;29.80;90.30;;;;;;5006863;28;20484;-71
2022/07/05 11:10:27;;;;;;;3.75;1.10;;;29.50;90.50;;;;;;5008110;28;20037;-71
2022/07/05 11:12:53;;;;;;;2.92;1.40;;;29.30;90.80;;;;;;5008047;28;20132;-71
2022/07/05 11:15:18;;;;;;;3.20;1.27;;;29.20;90.90;;;;;;5007934;28;20607;-71
2022/07/05 11:17:44;;;;;;;2.47;0.98;;;29.40;90.30;;;;;;5008253;28;20732;-71
2022/07/05 11:20:12;;;;;;;2.03;1.10;;;29.40;89.10;;;;;;5008156;28;20030;-71
2022/07/05 11:23:01;;;;;;;2.92;1.20;;;29.90;89.90;;;;;;4996954;28;20626;-71
2022/07/05 11:25:32;;;;;;;3.80;1.45;;;30.10;90.60;;;;;;5007633;28;20061;-71
2022/07/05 11:28:23;;;;;;;4.72;1.15;;;30.40;89.40;;;;;;5007832;28;20026;-71
2022/07/05 11:30:59;;;;;;;3.85;1.20;;;29.90;89.20;;;;;;5004226;28;20036;-71
2022/07/05 11:33:30;;;;;;;3.95;1.10;;;30.10;88.50;;;;;;5008232;28;20037;-71
2022/07/05 11:35:57;;;;;;;3.67;1.33;;;30.00;88.90;;;;;;5007278;28;20033;-71
2022/07/05 11:38:23;;;;;;;4.22;1.20;;;29.60;90.00;;;;;;5008037;28;20030;-71
2022/07/05 11:40:49;;;;;;;2.38;1.20;;;29.60;90.50;;;;;;5007404;28;20030;-71
2022/07/05 11:43:24;;;;;;;7.03;1.38;;;30.00;90.30;;;;;;5008451;28;20030;-71
2022/07/05 11:45:59;;;;;;;3.50;0.98;;;29.80;90.20;;;;;;5005824;28;20491;-71
2022/07/05 11:48:29;;;;;;;5.50;1.30;;;29.70;89.50;;;;;;5007136;28;20480;-71
2022/07/05 11:50:55;;;;;;;4.25;1.30;;;29.80;89.50;;;;;;5006419;28;20037;-71
2022/07/05 11:53:31;;;;;;;2.28;1.10;;;29.90;88.00;;;;;;5008010;28;20034;-71
2022/07/05 11:56:00;;;;;;;16.80;1.77;;;29.60;86.20;;;;;;5007925;28;20038;-71
2022/07/05 11:58:32;;;;;;;3.13;1.20;;;29.90;87.90;;;;;;5006801;28;20018;-71
2022/07/05 12:00:58;;;;;;;2.30;1.10;;;30.20;88.80;;;;;;5007672;28;20120;-71
2022/07/05 12:03:24;;;;;;;2.15;0.82;;;30.00;86.70;;;;;;5007101;28;20123;-71
2022/07/05 12:05:52;;;;;;;1.67;0.80;;;30.10;86.40;;;;;;5005317;28;20029;-71
2022/07/05 12:08:21;;;;;;;4.90;1.45;;;30.00;87.00;;;;;;5007519;28;20121;-71
2022/07/05 12:13:42;;;;;;;1.80;0.85;;;30.00;86.10;;;;;;5007476;28;20096;-71
2022/07/05 12:16:07;;;;;;;5.63;1.10;;;30.20;85.40;;;;;;5007216;28;20030;-71
2022/07/05 12:18:55;;;;;;;3.45;1.38;;;30.40;85.60;;;;;;5004970;28;20109;-71
2022/07/05 12:21:23;;;;;;;2.70;1.02;;;30.10;83.30;;;;;;5003741;28;20052;-71
2022/07/05 12:23:49;;;;;;;1.92;0.90;;;29.80;84.00;;;;;;5006991;28;20061;-71
2022/07/05 12:26:18;;;;;;;2.33;1.10;;;30.10;83.60;;;;;;4999188;28;20085;-71
2022/07/05 12:28:44;;;;;;;3.35;1.27;;;30.40;83.80;;;;;;5005952;28;20042;-71
2022/07/05 12:31:19;;;;;;;2.63;1.10;;;30.20;84.30;;;;;;5007879;28;20499;-71
2022/07/05 12:33:45;;;;;;;2.67;1.00;;;30.10;84.30;;;;;;5006852;28;20033;-71
2022/07/05 12:36:27;;;;;;;4.55;1.40;;;30.30;83.50;;;;;;5007809;28;20461;-71
2022/07/05 12:38:59;;;;;;;4.75;1.40;;;30.50;83.50;;;;;;5006656;28;20706;-71
2022/07/05 12:41:24;;;;;;;3.28;1.23;;;30.30;84.10;;;;;;5007417;28;20084;-71
2022/07/05 12:44:00;;;;;;;3.58;0.80;;;30.50;83.30;;;;;;5005775;28;20038;-71
2022/07/05 12:46:40;;;;;;;2.67;0.90;;;30.60;83.70;;;;;;5007284;28;20030;-71
2022/07/05 12:49:06;;;;;;;2.13;0.85;;;30.80;82.50;;;;;;5006357;28;20030;-71
2022/07/05 12:51:36;;;;;;;3.78;1.33;;;30.60;82.70;;;;;;5007202;28;20033;-71
2022/07/05 12:59:34;;;;;;;2.13;0.90;;;31.10;83.00;;;;;;5003976;28;20503;-71
2022/07/05 13:02:00;;;;;;;3.15;0.82;;;31.00;81.70;;;;;;5010546;28;20041;-71